sensor_id;sensor_type;location;lat;lon;timestamp;P1;durP1;ratioP1;P2;durP2;ratioP2
60478;SDS011;46321;48.398;11.754;2022-07-21T00:00:49;4.85;;;3.30;;
60478;SDS011;46321;48.398;11.754;2022-07-21T00:03:15;5.53;;;3.67;;
60478;SDS011;46321;48.398;11.754;2022-07-21T00:05:40;4.93;;;3.13;;
60478;SDS011;46321;48.398;11.754;2022-07-21T00:08:05;8.40;;;3.80;;
60478;SDS011;46321;48.398;11.754;2022-07-21T00:10:31;5.65;;;3.70;;
60478;SDS011;46321;48.398;11.754;2022-07-21T00:12:56;10.25;;;3.55;;
60478;SDS011;46321;48.398;11.754;2022-07-21T00:15:22;4.97;;;3.60;;
60478;SDS011;46321;48.398;11.754;2022-07-21T00:17:49;4.72;;;3.58;;
60478;SDS011;46321;48.398;11.754;2022-07-21T00:20:15;4.72;;;3.17;;
60478;SDS011;46321;48.398;11.754;2022-07-21T00:22:41;5.30;;;3.40;;
60478;SDS011;46321;48.398;11.754;2022-07-21T00:25:08;4.25;;;3.15;;
60478;SDS011;46321;48.398;11.754;2022-07-21T00:27:35;4.90;;;3.15;;
60478;SDS011;46321;48.398;11.754;2022-07-21T00:30:00;9.77;;;3.67;;
60478;SDS011;46321;48.398;11.754;2022-07-21T00:32:26;6.53;;;3.47;;
60478;SDS011;46321;48.398;11.754;2022-07-21T00:34:51;3.63;;;3.10;;
60478;SDS011;46321;48.398;11.754;2022-07-21T00:37:17;4.25;;;3.13;;
60478;SDS011;46321;48.398;11.754;2022-07-21T00:39:42;4.63;;;3.22;;
60478;SDS011;46321;48.398;11.754;2022-07-21T00:42:08;4.15;;;3.08;;
60478;SDS011;46321;48.398;11.754;2022-07-21T00:44:33;4.55;;;3.10;;
60478;SDS011;46321;48.398;11.754;2022-07-21T00:46:58;4.13;;;3.00;;
60478;SDS011;46321;48.398;11.754;2022-07-21T00:49:24;4.38;;;3.20;;
60478;SDS011;46321;48.398;11.754;2022-07-21T00:51:50;5.22;;;3.28;;
60478;SDS011;46321;48.398;11.754;2022-07-21T00:54:17;5.40;;;3.00;;
60478;SDS011;46321;48.398;11.754;2022-07-21T00:56:43;4.45;;;3.28;;
60478;SDS011;46321;48.398;11.754;2022-07-21T00:59:10;4.85;;;3.30;;
60478;SDS011;46321;48.398;11.754;2022-07-21T01:01:36;5.50;;;3.58;;
60478;SDS011;46321;48.398;11.754;2022-07-21T01:04:01;4.40;;;3.30;;
60478;SDS011;46321;48.398;11.754;2022-07-21T01:06:26;4.75;;;3.25;;
60478;SDS011;46321;48.398;11.754;2022-07-21T01:08:52;8.38;;;2.92;;
60478;SDS011;46321;48.398;11.754;2022-07-21T01:11:18;4.15;;;3.22;;
60478;SDS011;46321;48.398;11.754;2022-07-21T01:13:45;6.43;;;3.25;;
60478;SDS011;46321;48.398;11.754;2022-07-21T01:16:10;4.32;;;3.22;;
60478;SDS011;46321;48.398;11.754;2022-07-21T01:18:36;5.23;;;3.20;;
60478;SDS011;46321;48.398;11.754;2022-07-21T01:21:03;4.22;;;3.40;;
60478;SDS011;46321;48.398;11.754;2022-07-21T01:23:35;5.80;;;3.30;;
60478;SDS011;46321;48.398;11.754;2022-07-21T01:26:01;7.25;;;3.60;;
60478;SDS011;46321;48.398;11.754;2022-07-21T01:28:26;5.97;;;3.80;;
60478;SDS011;46321;48.398;11.754;2022-07-21T01:30:51;5.57;;;4.00;;
60478;SDS011;46321;48.398;11.754;2022-07-21T01:33:16;5.83;;;3.90;;
60478;SDS011;46321;48.398;11.754;2022-07-21T01:35:42;7.23;;;4.70;;
60478;SDS011;46321;48.398;11.754;2022-07-21T01:38:07;6.50;;;4.78;;
60478;SDS011;46321;48.398;11.754;2022-07-21T01:40:57;7.60;;;4.28;;
60478;SDS011;46321;48.398;11.754;2022-07-21T01:43:42;6.00;;;4.40;;
60478;SDS011;46321;48.398;11.754;2022-07-21T01:46:10;5.95;;;4.20;;
60478;SDS011;46321;48.398;11.754;2022-07-21T01:48:40;10.38;;;4.53;;
60478;SDS011;46321;48.398;11.754;2022-07-21T01:51:06;6.55;;;4.38;;
60478;SDS011;46321;48.398;11.754;2022-07-21T01:53:35;5.60;;;4.27;;
60478;SDS011;46321;48.398;11.754;2022-07-21T01:56:00;6.72;;;3.85;;
60478;SDS011;46321;48.398;11.754;2022-07-21T01:58:26;5.90;;;4.22;;
60478;SDS011;46321;48.398;11.754;2022-07-21T02:00:51;5.37;;;4.47;;
60478;SDS011;46321;48.398;11.754;2022-07-21T02:03:16;6.53;;;4.15;;
60478;SDS011;46321;48.398;11.754;2022-07-21T02:05:41;6.03;;;4.63;;
60478;SDS011;46321;48.398;11.754;2022-07-21T02:08:07;6.53;;;4.33;;
60478;SDS011;46321;48.398;11.754;2022-07-21T02:10:32;6.90;;;3.92;;
60478;SDS011;46321;48.398;11.754;2022-07-21T02:12:57;5.28;;;4.05;;
60478;SDS011;46321;48.398;11.754;2022-07-21T02:15:23;7.00;;;4.33;;
60478;SDS011;46321;48.398;11.754;2022-07-21T02:17:48;4.40;;;3.85;;
60478;SDS011;46321;48.398;11.754;2022-07-21T02:20:13;7.37;;;4.30;;
60478;SDS011;46321;48.398;11.754;2022-07-21T02:22:38;5.60;;;4.18;;
60478;SDS011;46321;48.398;11.754;2022-07-21T02:25:04;5.73;;;4.10;;
60478;SDS011;46321;48.398;11.754;2022-07-21T02:27:29;7.88;;;3.88;;
60478;SDS011;46321;48.398;11.754;2022-07-21T02:29:55;7.53;;;4.03;;
60478;SDS011;46321;48.398;11.754;2022-07-21T02:32:20;7.57;;;4.00;;
60478;SDS011;46321;48.398;11.754;2022-07-21T02:34:46;5.18;;;3.55;;
60478;SDS011;46321;48.398;11.754;2022-07-21T02:37:11;7.27;;;4.17;;
60478;SDS011;46321;48.398;11.754;2022-07-21T02:39:36;7.93;;;4.20;;
60478;SDS011;46321;48.398;11.754;2022-07-21T02:42:02;5.07;;;3.70;;
60478;SDS011;46321;48.398;11.754;2022-07-21T02:44:27;6.40;;;3.92;;
60478;SDS011;46321;48.398;11.754;2022-07-21T02:46:54;6.85;;;4.43;;
60478;SDS011;46321;48.398;11.754;2022-07-21T02:49:19;5.72;;;4.38;;
60478;SDS011;46321;48.398;11.754;2022-07-21T02:51:45;5.10;;;4.10;;
60478;SDS011;46321;48.398;11.754;2022-07-21T02:54:10;7.63;;;4.50;;
60478;SDS011;46321;48.398;11.754;2022-07-21T02:56:35;7.00;;;4.00;;
60478;SDS011;46321;48.398;11.754;2022-07-21T02:59:00;5.45;;;4.30;;
60478;SDS011;46321;48.398;11.754;2022-07-21T03:01:26;7.40;;;4.40;;
60478;SDS011;46321;48.398;11.754;2022-07-21T03:03:51;7.05;;;4.40;;
60478;SDS011;46321;48.398;11.754;2022-07-21T03:06:16;5.23;;;4.07;;
60478;SDS011;46321;48.398;11.754;2022-07-21T03:08:42;5.60;;;4.30;;
60478;SDS011;46321;48.398;11.754;2022-07-21T03:11:07;6.40;;;4.10;;
60478;SDS011;46321;48.398;11.754;2022-07-21T03:13:32;5.43;;;4.03;;
60478;SDS011;46321;48.398;11.754;2022-07-21T03:15:57;6.85;;;4.13;;
60478;SDS011;46321;48.398;11.754;2022-07-21T03:18:23;9.70;;;4.33;;
60478;SDS011;46321;48.398;11.754;2022-07-21T03:20:48;6.20;;;4.10;;
60478;SDS011;46321;48.398;11.754;2022-07-21T03:23:14;6.53;;;4.00;;
60478;SDS011;46321;48.398;11.754;2022-07-21T03:25:39;7.73;;;4.70;;
60478;SDS011;46321;48.398;11.754;2022-07-21T03:28:05;9.90;;;6.18;;
60478;SDS011;46321;48.398;11.754;2022-07-21T03:30:31;28.45;;;15.02;;
60478;SDS011;46321;48.398;11.754;2022-07-21T03:32:57;9.70;;;6.20;;
60478;SDS011;46321;48.398;11.754;2022-07-21T03:35:22;6.30;;;4.68;;
60478;SDS011;46321;48.398;11.754;2022-07-21T03:37:52;6.28;;;4.68;;
60478;SDS011;46321;48.398;11.754;2022-07-21T03:40:19;7.13;;;4.82;;
60478;SDS011;46321;48.398;11.754;2022-07-21T03:42:48;7.38;;;4.47;;
60478;SDS011;46321;48.398;11.754;2022-07-21T03:45:15;7.97;;;4.57;;
60478;SDS011;46321;48.398;11.754;2022-07-21T03:47:40;7.72;;;4.78;;
60478;SDS011;46321;48.398;11.754;2022-07-21T03:50:06;10.57;;;4.85;;
60478;SDS011;46321;48.398;11.754;2022-07-21T03:52:32;6.82;;;4.57;;
60478;SDS011;46321;48.398;11.754;2022-07-21T03:54:57;7.50;;;4.25;;
60478;SDS011;46321;48.398;11.754;2022-07-21T03:57:36;10.77;;;4.93;;
60478;SDS011;46321;48.398;11.754;2022-07-21T04:00:03;8.60;;;4.68;;
60478;SDS011;46321;48.398;11.754;2022-07-21T04:02:30;5.38;;;4.00;;
60478;SDS011;46321;48.398;11.754;2022-07-21T04:04:55;6.23;;;4.47;;
60478;SDS011;46321;48.398;11.754;2022-07-21T04:07:20;6.10;;;4.47;;
60478;SDS011;46321;48.398;11.754;2022-07-21T04:09:46;6.23;;;4.60;;
60478;SDS011;46321;48.398;11.754;2022-07-21T04:12:12;8.05;;;4.55;;
60478;SDS011;46321;48.398;11.754;2022-07-21T04:14:37;7.32;;;4.82;;
60478;SDS011;46321;48.398;11.754;2022-07-21T04:17:03;6.80;;;4.80;;
60478;SDS011;46321;48.398;11.754;2022-07-21T04:19:28;6.50;;;5.10;;
60478;SDS011;46321;48.398;11.754;2022-07-21T04:21:54;7.75;;;5.45;;
60478;SDS011;46321;48.398;11.754;2022-07-21T04:24:19;10.30;;;5.72;;
60478;SDS011;46321;48.398;11.754;2022-07-21T04:26:44;9.23;;;5.80;;
60478;SDS011;46321;48.398;11.754;2022-07-21T04:29:09;10.23;;;5.87;;
60478;SDS011;46321;48.398;11.754;2022-07-21T04:31:35;10.93;;;7.10;;
60478;SDS011;46321;48.398;11.754;2022-07-21T04:34:00;8.83;;;6.43;;
60478;SDS011;46321;48.398;11.754;2022-07-21T04:36:25;8.80;;;6.13;;
60478;SDS011;46321;48.398;11.754;2022-07-21T04:38:50;8.30;;;6.33;;
60478;SDS011;46321;48.398;11.754;2022-07-21T04:41:16;8.85;;;6.78;;
60478;SDS011;46321;48.398;11.754;2022-07-21T04:43:41;9.13;;;6.27;;
60478;SDS011;46321;48.398;11.754;2022-07-21T04:46:06;9.75;;;6.65;;
60478;SDS011;46321;48.398;11.754;2022-07-21T04:48:32;14.90;;;6.93;;
60478;SDS011;46321;48.398;11.754;2022-07-21T04:50:57;11.05;;;7.85;;
60478;SDS011;46321;48.398;11.754;2022-07-21T04:53:23;13.73;;;8.20;;
60478;SDS011;46321;48.398;11.754;2022-07-21T04:55:48;12.02;;;7.85;;
60478;SDS011;46321;48.398;11.754;2022-07-21T04:58:14;9.55;;;7.43;;
60478;SDS011;46321;48.398;11.754;2022-07-21T05:00:40;11.98;;;8.10;;
60478;SDS011;46321;48.398;11.754;2022-07-21T05:03:05;14.00;;;8.25;;
60478;SDS011;46321;48.398;11.754;2022-07-21T05:05:31;12.75;;;8.20;;
60478;SDS011;46321;48.398;11.754;2022-07-21T05:07:56;12.32;;;8.70;;
60478;SDS011;46321;48.398;11.754;2022-07-21T05:10:21;13.57;;;8.60;;
60478;SDS011;46321;48.398;11.754;2022-07-21T05:12:46;13.35;;;8.48;;
60478;SDS011;46321;48.398;11.754;2022-07-21T05:15:12;11.60;;;8.30;;
60478;SDS011;46321;48.398;11.754;2022-07-21T05:17:37;20.10;;;12.80;;
60478;SDS011;46321;48.398;11.754;2022-07-21T05:20:04;15.75;;;9.90;;
60478;SDS011;46321;48.398;11.754;2022-07-21T05:22:30;14.35;;;8.65;;
60478;SDS011;46321;48.398;11.754;2022-07-21T05:24:55;11.77;;;8.05;;
60478;SDS011;46321;48.398;11.754;2022-07-21T05:27:21;13.40;;;8.45;;
60478;SDS011;46321;48.398;11.754;2022-07-21T05:29:46;15.00;;;8.07;;
60478;SDS011;46321;48.398;11.754;2022-07-21T05:32:11;13.75;;;8.63;;
60478;SDS011;46321;48.398;11.754;2022-07-21T05:34:36;14.95;;;8.63;;
60478;SDS011;46321;48.398;11.754;2022-07-21T05:37:02;13.87;;;9.13;;
60478;SDS011;46321;48.398;11.754;2022-07-21T05:39:27;12.57;;;9.02;;
60478;SDS011;46321;48.398;11.754;2022-07-21T05:41:52;11.13;;;8.47;;
60478;SDS011;46321;48.398;11.754;2022-07-21T05:44:18;14.00;;;8.70;;
60478;SDS011;46321;48.398;11.754;2022-07-21T05:46:43;12.40;;;8.37;;
60478;SDS011;46321;48.398;11.754;2022-07-21T05:49:08;12.73;;;8.63;;
60478;SDS011;46321;48.398;11.754;2022-07-21T05:51:33;13.98;;;8.65;;
60478;SDS011;46321;48.398;11.754;2022-07-21T05:53:59;13.07;;;8.53;;
60478;SDS011;46321;48.398;11.754;2022-07-21T05:56:24;16.10;;;8.50;;
60478;SDS011;46321;48.398;11.754;2022-07-21T05:58:49;15.60;;;9.20;;
60478;SDS011;46321;48.398;11.754;2022-07-21T06:01:14;14.07;;;8.47;;
60478;SDS011;46321;48.398;11.754;2022-07-21T06:03:46;13.30;;;9.45;;
60478;SDS011;46321;48.398;11.754;2022-07-21T06:06:14;12.65;;;8.60;;
60478;SDS011;46321;48.398;11.754;2022-07-21T06:08:44;11.93;;;8.48;;
60478;SDS011;46321;48.398;11.754;2022-07-21T06:11:11;13.82;;;8.80;;
60478;SDS011;46321;48.398;11.754;2022-07-21T06:13:38;12.00;;;8.45;;
60478;SDS011;46321;48.398;11.754;2022-07-21T06:16:03;13.65;;;9.55;;
60478;SDS011;46321;48.398;11.754;2022-07-21T06:18:29;12.13;;;8.40;;
60478;SDS011;46321;48.398;11.754;2022-07-21T06:20:55;13.00;;;8.73;;
60478;SDS011;46321;48.398;11.754;2022-07-21T06:23:20;11.88;;;8.57;;
60478;SDS011;46321;48.398;11.754;2022-07-21T06:25:46;15.32;;;8.43;;
60478;SDS011;46321;48.398;11.754;2022-07-21T06:28:11;16.00;;;11.23;;
60478;SDS011;46321;48.398;11.754;2022-07-21T06:30:37;18.45;;;9.35;;
60478;SDS011;46321;48.398;11.754;2022-07-21T06:33:03;15.20;;;10.30;;
60478;SDS011;46321;48.398;11.754;2022-07-21T06:35:28;12.57;;;9.18;;
60478;SDS011;46321;48.398;11.754;2022-07-21T06:37:53;12.70;;;9.23;;
60478;SDS011;46321;48.398;11.754;2022-07-21T06:40:19;13.60;;;8.70;;
60478;SDS011;46321;48.398;11.754;2022-07-21T06:42:44;12.90;;;9.48;;
60478;SDS011;46321;48.398;11.754;2022-07-21T06:45:09;13.82;;;8.50;;
60478;SDS011;46321;48.398;11.754;2022-07-21T06:47:35;14.48;;;8.70;;
60478;SDS011;46321;48.398;11.754;2022-07-21T06:50:00;12.73;;;9.10;;
60478;SDS011;46321;48.398;11.754;2022-07-21T06:52:28;13.20;;;8.77;;
60478;SDS011;46321;48.398;11.754;2022-07-21T06:54:54;14.65;;;9.10;;
60478;SDS011;46321;48.398;11.754;2022-07-21T06:57:20;13.27;;;8.30;;
60478;SDS011;46321;48.398;11.754;2022-07-21T06:59:45;13.73;;;8.70;;
60478;SDS011;46321;48.398;11.754;2022-07-21T07:02:10;12.70;;;8.63;;
60478;SDS011;46321;48.398;11.754;2022-07-21T07:04:35;15.87;;;9.80;;
60478;SDS011;46321;48.398;11.754;2022-07-21T07:07:01;13.63;;;8.75;;
60478;SDS011;46321;48.398;11.754;2022-07-21T07:09:26;12.82;;;9.10;;
60478;SDS011;46321;48.398;11.754;2022-07-21T07:11:51;14.63;;;9.37;;
60478;SDS011;46321;48.398;11.754;2022-07-21T07:14:17;11.32;;;8.60;;
60478;SDS011;46321;48.398;11.754;2022-07-21T07:16:43;13.05;;;9.27;;
60478;SDS011;46321;48.398;11.754;2022-07-21T07:19:09;14.48;;;8.85;;
60478;SDS011;46321;48.398;11.754;2022-07-21T07:21:34;13.85;;;9.93;;
60478;SDS011;46321;48.398;11.754;2022-07-21T07:23:59;12.75;;;9.10;;
60478;SDS011;46321;48.398;11.754;2022-07-21T07:26:27;13.00;;;9.30;;
60478;SDS011;46321;48.398;11.754;2022-07-21T07:28:52;12.10;;;9.10;;
60478;SDS011;46321;48.398;11.754;2022-07-21T07:31:17;12.40;;;9.33;;
60478;SDS011;46321;48.398;11.754;2022-07-21T07:33:43;13.77;;;8.82;;
60478;SDS011;46321;48.398;11.754;2022-07-21T07:36:08;13.95;;;9.05;;
60478;SDS011;46321;48.398;11.754;2022-07-21T07:38:37;13.52;;;7.97;;
60478;SDS011;46321;48.398;11.754;2022-07-21T07:41:03;13.65;;;8.77;;
60478;SDS011;46321;48.398;11.754;2022-07-21T07:43:28;11.63;;;8.82;;
60478;SDS011;46321;48.398;11.754;2022-07-21T07:45:53;12.17;;;8.90;;
60478;SDS011;46321;48.398;11.754;2022-07-21T07:48:19;12.10;;;8.38;;
60478;SDS011;46321;48.398;11.754;2022-07-21T07:50:44;11.45;;;8.18;;
60478;SDS011;46321;48.398;11.754;2022-07-21T07:53:09;11.30;;;8.50;;
60478;SDS011;46321;48.398;11.754;2022-07-21T07:55:34;12.07;;;8.18;;
60478;SDS011;46321;48.398;11.754;2022-07-21T07:58:01;13.60;;;8.13;;
60478;SDS011;46321;48.398;11.754;2022-07-21T08:00:26;11.05;;;7.90;;
60478;SDS011;46321;48.398;11.754;2022-07-21T08:02:52;11.32;;;8.10;;
60478;SDS011;46321;48.398;11.754;2022-07-21T08:05:17;11.05;;;7.78;;
60478;SDS011;46321;48.398;11.754;2022-07-21T08:07:42;12.55;;;8.00;;
60478;SDS011;46321;48.398;11.754;2022-07-21T08:10:09;11.55;;;8.40;;
60478;SDS011;46321;48.398;11.754;2022-07-21T08:12:37;11.32;;;7.47;;
60478;SDS011;46321;48.398;11.754;2022-07-21T08:15:03;10.52;;;7.80;;
60478;SDS011;46321;48.398;11.754;2022-07-21T08:17:29;11.98;;;8.45;;
60478;SDS011;46321;48.398;11.754;2022-07-21T08:19:54;13.85;;;8.40;;
60478;SDS011;46321;48.398;11.754;2022-07-21T08:22:20;11.35;;;8.25;;
60478;SDS011;46321;48.398;11.754;2022-07-21T08:24:45;11.00;;;8.10;;
60478;SDS011;46321;48.398;11.754;2022-07-21T08:27:10;12.50;;;8.05;;
60478;SDS011;46321;48.398;11.754;2022-07-21T08:29:36;12.07;;;8.18;;
60478;SDS011;46321;48.398;11.754;2022-07-21T08:32:01;17.02;;;12.15;;
60478;SDS011;46321;48.398;11.754;2022-07-21T08:34:26;11.93;;;9.30;;
60478;SDS011;46321;48.398;11.754;2022-07-21T08:36:52;10.02;;;7.45;;
60478;SDS011;46321;48.398;11.754;2022-07-21T08:39:18;9.93;;;6.40;;
60478;SDS011;46321;48.398;11.754;2022-07-21T08:41:44;8.52;;;7.10;;
60478;SDS011;46321;48.398;11.754;2022-07-21T08:44:09;9.30;;;7.40;;
60478;SDS011;46321;48.398;11.754;2022-07-21T08:46:36;9.32;;;6.75;;
60478;SDS011;46321;48.398;11.754;2022-07-21T08:49:04;9.68;;;6.72;;
60478;SDS011;46321;48.398;11.754;2022-07-21T08:51:33;8.55;;;6.85;;
60478;SDS011;46321;48.398;11.754;2022-07-21T08:53:59;9.32;;;6.63;;
60478;SDS011;46321;48.398;11.754;2022-07-21T08:56:25;10.02;;;7.00;;
60478;SDS011;46321;48.398;11.754;2022-07-21T08:58:50;8.98;;;7.03;;
60478;SDS011;46321;48.398;11.754;2022-07-21T09:01:16;10.45;;;7.63;;
60478;SDS011;46321;48.398;11.754;2022-07-21T09:03:41;10.00;;;7.07;;
60478;SDS011;46321;48.398;11.754;2022-07-21T09:08:39;11.27;;;7.25;;
60478;SDS011;46321;48.398;11.754;2022-07-21T09:13:38;8.38;;;7.00;;
60478;SDS011;46321;48.398;11.754;2022-07-21T09:16:04;12.70;;;8.00;;
60478;SDS011;46321;48.398;11.754;2022-07-21T09:18:30;8.77;;;7.07;;
60478;SDS011;46321;48.398;11.754;2022-07-21T09:20:58;11.13;;;8.07;;
60478;SDS011;46321;48.398;11.754;2022-07-21T09:23:25;11.00;;;7.85;;
60478;SDS011;46321;48.398;11.754;2022-07-21T09:25:52;14.25;;;8.20;;
60478;SDS011;46321;48.398;11.754;2022-07-21T09:28:20;11.95;;;8.27;;
60478;SDS011;46321;48.398;11.754;2022-07-21T09:30:48;13.25;;;8.65;;
60478;SDS011;46321;48.398;11.754;2022-07-21T09:35:56;12.93;;;9.07;;
60478;SDS011;46321;48.398;11.754;2022-07-21T09:38:24;11.20;;;8.20;;
60478;SDS011;46321;48.398;11.754;2022-07-21T09:40:50;11.25;;;8.07;;
60478;SDS011;46321;48.398;11.754;2022-07-21T09:43:35;11.13;;;8.37;;
60478;SDS011;46321;48.398;11.754;2022-07-21T09:46:27;12.20;;;8.57;;
60478;SDS011;46321;48.398;11.754;2022-07-21T09:48:55;14.75;;;8.65;;
60478;SDS011;46321;48.398;11.754;2022-07-21T09:51:32;12.98;;;8.98;;
60478;SDS011;46321;48.398;11.754;2022-07-21T09:54:00;10.68;;;8.55;;
60478;SDS011;46321;48.398;11.754;2022-07-21T09:56:37;11.75;;;8.57;;
60478;SDS011;46321;48.398;11.754;2022-07-21T09:59:06;13.60;;;8.93;;
60478;SDS011;46321;48.398;11.754;2022-07-21T10:01:32;11.07;;;8.30;;
60478;SDS011;46321;48.398;11.754;2022-07-21T10:04:00;13.05;;;8.75;;
60478;SDS011;46321;48.398;11.754;2022-07-21T10:06:27;12.15;;;8.90;;
60478;SDS011;46321;48.398;11.754;2022-07-21T10:09:00;14.48;;;8.50;;
60478;SDS011;46321;48.398;11.754;2022-07-21T10:11:28;10.68;;;8.75;;
60478;SDS011;46321;48.398;11.754;2022-07-21T10:13:53;13.02;;;8.88;;
60478;SDS011;46321;48.398;11.754;2022-07-21T10:16:19;15.75;;;9.25;;
60478;SDS011;46321;48.398;11.754;2022-07-21T10:18:50;10.98;;;8.60;;
60478;SDS011;46321;48.398;11.754;2022-07-21T10:21:26;11.43;;;8.77;;
60478;SDS011;46321;48.398;11.754;2022-07-21T10:24:01;10.95;;;8.43;;
60478;SDS011;46321;48.398;11.754;2022-07-21T10:26:26;11.43;;;8.40;;
60478;SDS011;46321;48.398;11.754;2022-07-21T10:28:51;14.03;;;8.40;;
60478;SDS011;46321;48.398;11.754;2022-07-21T10:31:18;12.82;;;8.95;;
60478;SDS011;46321;48.398;11.754;2022-07-21T10:41:37;14.98;;;9.25;;
60478;SDS011;46321;48.398;11.754;2022-07-21T10:44:02;12.65;;;8.73;;
60478;SDS011;46321;48.398;11.754;2022-07-21T10:46:34;13.27;;;9.10;;
60478;SDS011;46321;48.398;11.754;2022-07-21T10:49:00;13.75;;;9.00;;
60478;SDS011;46321;48.398;11.754;2022-07-21T10:51:26;13.60;;;9.25;;
60478;SDS011;46321;48.398;11.754;2022-07-21T10:56:42;13.57;;;8.75;;
60478;SDS011;46321;48.398;11.754;2022-07-21T10:59:08;12.60;;;9.83;;
60478;SDS011;46321;48.398;11.754;2022-07-21T11:01:33;12.37;;;9.30;;
60478;SDS011;46321;48.398;11.754;2022-07-21T11:04:13;13.70;;;9.25;;
60478;SDS011;46321;48.398;11.754;2022-07-21T11:06:42;13.15;;;10.25;;
60478;SDS011;46321;48.398;11.754;2022-07-21T11:09:10;14.65;;;9.82;;
60478;SDS011;46321;48.398;11.754;2022-07-21T11:11:36;14.50;;;9.88;;
60478;SDS011;46321;48.398;11.754;2022-07-21T11:14:11;15.00;;;10.02;;
60478;SDS011;46321;48.398;11.754;2022-07-21T11:19:26;14.82;;;10.00;;
60478;SDS011;46321;48.398;11.754;2022-07-21T11:21:51;13.70;;;10.35;;
60478;SDS011;46321;48.398;11.754;2022-07-21T11:24:18;12.73;;;9.82;;
60478;SDS011;46321;48.398;11.754;2022-07-21T11:26:44;12.43;;;9.20;;
60478;SDS011;46321;48.398;11.754;2022-07-21T11:29:09;14.07;;;9.40;;
60478;SDS011;46321;48.398;11.754;2022-07-21T11:31:44;18.23;;;9.73;;
60478;SDS011;46321;48.398;11.754;2022-07-21T11:34:11;15.18;;;9.65;;
60478;SDS011;46321;48.398;11.754;2022-07-21T11:36:36;12.88;;;9.48;;
60478;SDS011;46321;48.398;11.754;2022-07-21T11:39:06;16.60;;;9.97;;
60478;SDS011;46321;48.398;11.754;2022-07-21T11:41:36;12.20;;;9.40;;
60478;SDS011;46321;48.398;11.754;2022-07-21T11:44:04;14.32;;;9.48;;
60478;SDS011;46321;48.398;11.754;2022-07-21T11:46:49;15.55;;;9.65;;
60478;SDS011;46321;48.398;11.754;2022-07-21T11:49:15;14.05;;;9.38;;
60478;SDS011;46321;48.398;11.754;2022-07-21T11:51:47;15.90;;;9.98;;
60478;SDS011;46321;48.398;11.754;2022-07-21T11:54:32;14.35;;;10.18;;
60478;SDS011;46321;48.398;11.754;2022-07-21T11:57:00;16.27;;;11.10;;
60478;SDS011;46321;48.398;11.754;2022-07-21T11:59:28;14.85;;;10.27;;
60478;SDS011;46321;48.398;11.754;2022-07-21T12:02:04;12.95;;;9.40;;
60478;SDS011;46321;48.398;11.754;2022-07-21T12:04:39;14.63;;;9.40;;
60478;SDS011;46321;48.398;11.754;2022-07-21T12:07:22;14.05;;;9.45;;
60478;SDS011;46321;48.398;11.754;2022-07-21T12:09:57;13.05;;;9.27;;
60478;SDS011;46321;48.398;11.754;2022-07-21T12:12:31;18.30;;;13.30;;
60478;SDS011;46321;48.398;11.754;2022-07-21T12:17:44;16.67;;;10.00;;
60478;SDS011;46321;48.398;11.754;2022-07-21T12:20:14;14.32;;;10.13;;
60478;SDS011;46321;48.398;11.754;2022-07-21T12:22:48;13.25;;;9.57;;
60478;SDS011;46321;48.398;11.754;2022-07-21T12:25:14;13.63;;;9.60;;
60478;SDS011;46321;48.398;11.754;2022-07-21T12:27:43;17.38;;;10.65;;
60478;SDS011;46321;48.398;11.754;2022-07-21T12:30:28;15.98;;;10.27;;
60478;SDS011;46321;48.398;11.754;2022-07-21T12:33:01;11.82;;;9.50;;
60478;SDS011;46321;48.398;11.754;2022-07-21T12:35:37;12.73;;;9.90;;
60478;SDS011;46321;48.398;11.754;2022-07-21T12:38:10;13.18;;;9.73;;
60478;SDS011;46321;48.398;11.754;2022-07-21T12:40:39;12.25;;;9.27;;
60478;SDS011;46321;48.398;11.754;2022-07-21T12:43:11;14.32;;;9.38;;
60478;SDS011;46321;48.398;11.754;2022-07-21T12:46:15;14.65;;;9.68;;
60478;SDS011;46321;48.398;11.754;2022-07-21T12:53:44;13.48;;;8.98;;
60478;SDS011;46321;48.398;11.754;2022-07-21T12:56:12;13.35;;;9.45;;
60478;SDS011;46321;48.398;11.754;2022-07-21T12:58:40;12.88;;;9.15;;
60478;SDS011;46321;48.398;11.754;2022-07-21T13:01:05;12.40;;;9.30;;
60478;SDS011;46321;48.398;11.754;2022-07-21T13:03:31;12.95;;;9.50;;
60478;SDS011;46321;48.398;11.754;2022-07-21T13:05:59;12.25;;;9.45;;
60478;SDS011;46321;48.398;11.754;2022-07-21T13:08:25;12.88;;;9.80;;
60478;SDS011;46321;48.398;11.754;2022-07-21T13:10:51;18.10;;;12.10;;
60478;SDS011;46321;48.398;11.754;2022-07-21T13:13:16;14.07;;;10.68;;
60478;SDS011;46321;48.398;11.754;2022-07-21T13:15:41;13.20;;;9.95;;
60478;SDS011;46321;48.398;11.754;2022-07-21T13:18:07;13.55;;;9.40;;
60478;SDS011;46321;48.398;11.754;2022-07-21T13:20:33;11.60;;;8.82;;
60478;SDS011;46321;48.398;11.754;2022-07-21T13:22:58;12.23;;;9.15;;
60478;SDS011;46321;48.398;11.754;2022-07-21T13:25:23;12.67;;;9.33;;
60478;SDS011;46321;48.398;11.754;2022-07-21T13:27:49;13.80;;;9.85;;
60478;SDS011;46321;48.398;11.754;2022-07-21T13:30:14;13.27;;;10.05;;
60478;SDS011;46321;48.398;11.754;2022-07-21T13:32:40;13.60;;;9.48;;
60478;SDS011;46321;48.398;11.754;2022-07-21T13:35:06;16.37;;;9.80;;
60478;SDS011;46321;48.398;11.754;2022-07-21T13:37:31;15.05;;;9.63;;
60478;SDS011;46321;48.398;11.754;2022-07-21T13:39:57;13.93;;;10.10;;
60478;SDS011;46321;48.398;11.754;2022-07-21T13:42:22;16.50;;;9.57;;
60478;SDS011;46321;48.398;11.754;2022-07-21T13:44:48;15.63;;;10.02;;
60478;SDS011;46321;48.398;11.754;2022-07-21T13:47:13;12.30;;;10.07;;
60478;SDS011;46321;48.398;11.754;2022-07-21T13:49:38;16.83;;;9.25;;
60478;SDS011;46321;48.398;11.754;2022-07-21T13:52:04;14.35;;;9.32;;
60478;SDS011;46321;48.398;11.754;2022-07-21T13:54:29;13.43;;;10.18;;
60478;SDS011;46321;48.398;11.754;2022-07-21T13:56:55;14.17;;;9.93;;
60478;SDS011;46321;48.398;11.754;2022-07-21T13:59:21;12.63;;;9.00;;
60478;SDS011;46321;48.398;11.754;2022-07-21T14:01:47;12.35;;;9.40;;
60478;SDS011;46321;48.398;11.754;2022-07-21T14:04:12;12.93;;;9.43;;
60478;SDS011;46321;48.398;11.754;2022-07-21T14:06:38;15.32;;;9.93;;
60478;SDS011;46321;48.398;11.754;2022-07-21T14:09:04;17.23;;;9.68;;
60478;SDS011;46321;48.398;11.754;2022-07-21T14:11:29;16.75;;;10.85;;
60478;SDS011;46321;48.398;11.754;2022-07-21T14:13:55;16.20;;;10.02;;
60478;SDS011;46321;48.398;11.754;2022-07-21T14:16:21;14.73;;;10.80;;
60478;SDS011;46321;48.398;11.754;2022-07-21T14:18:46;15.20;;;10.70;;
60478;SDS011;46321;48.398;11.754;2022-07-21T14:21:11;14.38;;;10.32;;
60478;SDS011;46321;48.398;11.754;2022-07-21T14:23:37;12.13;;;9.40;;
60478;SDS011;46321;48.398;11.754;2022-07-21T14:26:03;12.05;;;9.50;;
60478;SDS011;46321;48.398;11.754;2022-07-21T14:28:28;13.82;;;9.40;;
60478;SDS011;46321;48.398;11.754;2022-07-21T14:30:54;16.00;;;9.82;;
60478;SDS011;46321;48.398;11.754;2022-07-21T14:33:19;12.00;;;9.90;;
60478;SDS011;46321;48.398;11.754;2022-07-21T14:35:44;14.77;;;9.37;;
60478;SDS011;46321;48.398;11.754;2022-07-21T14:38:10;12.07;;;9.43;;
60478;SDS011;46321;48.398;11.754;2022-07-21T14:40:35;14.77;;;9.73;;
60478;SDS011;46321;48.398;11.754;2022-07-21T14:43:01;15.05;;;9.68;;
60478;SDS011;46321;48.398;11.754;2022-07-21T14:45:27;10.23;;;8.88;;
60478;SDS011;46321;48.398;11.754;2022-07-21T14:47:53;11.80;;;9.07;;
60478;SDS011;46321;48.398;11.754;2022-07-21T14:50:20;12.82;;;9.60;;
60478;SDS011;46321;48.398;11.754;2022-07-21T14:52:47;12.55;;;9.90;;